createdAt,value
2023-01-02T00:02:10.514Z,101550.19
2023-01-02T00:04:58.270Z,101553.19
2023-01-02T00:07:45.981Z,101534.34
2023-01-02T00:10:33.648Z,101542.25
2023-01-02T00:13:21.398Z,101559.47
2023-01-02T00:16:09.521Z,101548.00
2023-01-02T00:18:57.249Z,101522.59
2023-01-02T00:21:44.951Z,101533.50
2023-01-02T00:24:32.676Z,101555.91
2023-01-02T00:27:20.278Z,101546.31
2023-01-02T00:30:08.684Z,101544.97
2023-01-02T00:32:56.625Z,101533.75
2023-01-02T00:35:44.368Z,101558.59
2023-01-02T00:38:32.021Z,101562.41
2023-01-02T00:41:21.636Z,101558.59
2023-01-02T00:44:09.318Z,101552.31
2023-01-02T00:46:57.164Z,101525.25
2023-01-02T00:49:44.844Z,101558.03
2023-01-02T00:52:32.592Z,101550.94
2023-01-02T00:55:20.235Z,101549.25
2023-01-02T00:58:07.929Z,101539.19
2023-01-02T01:00:55.740Z,101552.25
2023-01-02T01:03:43.858Z,101552.53
2023-01-02T01:06:31.462Z,101518.38
2023-01-02T01:09:20.190Z,101481.50
2023-01-02T01:12:08.189Z,101551.69
2023-01-02T01:14:55.874Z,101526.84
2023-01-02T01:17:43.810Z,101529.84
2023-01-02T01:20:31.460Z,101539.69
2023-01-02T01:23:19.146Z,101539.69
2023-01-02T01:26:08.819Z,101544.59
2023-01-02T01:28:57.079Z,101535.31
2023-01-02T01:31:44.791Z,101540.19
2023-01-02T01:34:32.571Z,101545.91
2023-01-02T01:37:20.115Z,101553.50
2023-01-02T01:40:08.320Z,101552.41
2023-01-02T01:43:00.706Z,101552.13
2023-01-02T01:45:48.637Z,101545.81
2023-01-02T01:48:37.011Z,101506.75
2023-01-02T01:51:27.831Z,101534.06
2023-01-02T01:54:22.091Z,101548.50
2023-01-02T01:57:59.510Z,101548.50
2023-01-02T02:00:48.444Z,101542.50
2023-01-02T02:03:37.778Z,101536.50
2023-01-02T02:06:25.602Z,101540.88
2023-01-02T02:09:19.385Z,101538.75
2023-01-02T02:12:08.231Z,101548.03
2023-01-02T02:14:55.887Z,101534.41
2023-01-02T02:18:04.894Z,101530.59
2023-01-02T02:21:09.023Z,101531.09
2023-01-02T02:24:11.332Z,101518.78
2023-01-02T02:26:58.786Z,101536.78
2023-01-02T02:30:05.028Z,101521.84
2023-01-02T02:33:15.673Z,101532.47
2023-01-02T02:36:34.951Z,101514.75
2023-01-02T02:39:40.890Z,101538.72
2023-01-02T02:42:55.893Z,101535.47
2023-01-02T02:46:03.362Z,101542.00
2023-01-02T02:49:04.902Z,101533.28
2023-01-02T02:52:07.756Z,101528.06
2023-01-02T02:55:07.579Z,101527.25
2023-01-02T02:57:57.392Z,101529.38
2023-01-02T03:00:45.022Z,101502.03
2023-01-02T03:03:32.843Z,101528.50
2023-01-02T03:06:36.676Z,101537.44
2023-01-02T03:09:43.926Z,101527.09
2023-01-02T03:12:50.280Z,101523.53
2023-01-02T03:15:51.636Z,101513.44
2023-01-02T03:18:45.965Z,101522.69
2023-01-02T03:21:41.715Z,101543.69
2023-01-02T03:24:30.938Z,101525.63
2023-01-02T03:27:24.281Z,101529.50
2023-01-02T03:30:17.594Z,101535.97
2023-01-02T03:33:13.562Z,101544.94
2023-01-02T03:36:06.846Z,101533.97
2023-01-02T03:39:03.903Z,101521.66
2023-01-02T03:42:02.680Z,101550.66
2023-01-02T03:45:16.443Z,101525.19
2023-01-02T03:48:15.981Z,101549.22
2023-01-02T03:51:04.573Z,101539.66
2023-01-02T03:53:53.530Z,101511.50
2023-01-02T03:56:52.457Z,101543.72
2023-01-02T03:59:58.584Z,101540.72
2023-01-02T04:03:03.003Z,101539.31
2023-01-02T04:06:00.618Z,101545.25
2023-01-02T04:08:56.999Z,101553.44
2023-01-02T04:11:51.002Z,101555.63
2023-01-02T04:14:46.024Z,101539.47
2023-01-02T04:17:41.098Z,101551.16
2023-01-02T04:20:35.320Z,101561.00
2023-01-02T04:23:32.576Z,101547.34
2023-01-02T04:26:49.792Z,101554.00
2023-01-02T04:29:37.600Z,101552.06
2023-01-02T04:32:34.017Z,101550.03
2023-01-02T04:35:24.372Z,101543.69
2023-01-02T04:38:12.753Z,101530.28
2023-01-02T04:41:00.727Z,101554.88
2023-01-02T04:43:49.506Z,101564.88
2023-01-02T04:46:37.280Z,101555.34
2023-01-02T04:49:26.896Z,101567.34
2023-01-02T04:52:14.637Z,101570.31
2023-01-02T04:55:08.228Z,101567.34
2023-01-02T04:57:57.877Z,101575.69
2023-01-02T05:00:45.717Z,101566.78
2023-01-02T05:03:33.660Z,101567.31
2023-01-02T05:06:22.874Z,101572.50
2023-01-02T05:09:10.794Z,101571.13
2023-01-02T05:12:01.222Z,101558.47
2023-01-02T05:14:57.714Z,101570.47
2023-01-02T05:17:45.423Z,101565.34
2023-01-02T05:24:00.947Z,101551.72
2023-01-02T05:27:05.133Z,101555.06
2023-01-02T05:29:52.919Z,101568.88
2023-01-02T05:32:40.576Z,101516.47
2023-01-02T05:35:32.397Z,101566.50
2023-01-02T05:38:21.220Z,101564.31
2023-01-02T05:41:08.971Z,101584.47
2023-01-02T05:43:56.959Z,101580.63
2023-01-02T05:46:44.674Z,101578.41
2023-01-02T05:49:34.834Z,101576.50
2023-01-02T05:52:26.804Z,101566.94
2023-01-02T05:55:16.899Z,101576.84
2023-01-02T05:58:04.550Z,101597.72
2023-01-02T06:00:52.321Z,101598.16
2023-01-02T06:03:40.420Z,101600.31
2023-01-02T06:06:34.557Z,101591.66
2023-01-02T06:09:22.246Z,101588.09
2023-01-02T06:12:12.906Z,101597.41
2023-01-02T06:15:00.651Z,101595.81
2023-01-02T06:17:48.380Z,101591.19
2023-01-02T06:20:36.173Z,101592.97
2023-01-02T06:23:24.612Z,101581.00
2023-01-02T06:26:18.194Z,101573.03
2023-01-02T06:29:05.919Z,101580.41
2023-01-02T06:31:55.893Z,101594.97
2023-01-02T06:34:46.781Z,101590.56
2023-01-02T06:37:34.518Z,101596.72
2023-01-02T06:44:15.436Z,101590.53
2023-01-02T06:47:03.115Z,101573.78
2023-01-02T06:49:50.807Z,101556.31
2023-01-02T06:52:38.508Z,101586.72
2023-01-02T06:55:26.118Z,101582.16
2023-01-02T06:58:19.250Z,101597.47
2023-01-02T07:01:11.577Z,101600.75
2023-01-02T07:03:59.425Z,101594.88
2023-01-02T07:06:49.436Z,101595.69
2023-01-02T07:09:37.225Z,101585.00
2023-01-02T07:12:24.796Z,101612.13
2023-01-02T07:15:12.555Z,101609.19
2023-01-02T07:18:00.183Z,101624.78
2023-01-02T07:20:54.392Z,101626.16
2023-01-02T07:23:42.859Z,101624.59
2023-01-02T07:26:30.636Z,101612.91
2023-01-02T07:29:18.648Z,101622.78
2023-01-02T07:32:06.521Z,101617.34
2023-01-02T07:34:54.598Z,101599.06
2023-01-02T07:37:42.308Z,101613.84
2023-01-02T07:40:32.330Z,101583.50
2023-01-02T07:43:21.907Z,101600.13
2023-01-02T07:46:09.614Z,101609.97
2023-01-02T07:48:57.293Z,101586.13
2023-01-02T07:51:45.053Z,101616.88
2023-01-02T07:54:32.658Z,101572.59
2023-01-02T07:57:20.474Z,101570.19
2023-01-02T08:00:08.961Z,101573.19
2023-01-02T08:02:59.640Z,101577.78
2023-01-02T08:05:50.869Z,101548.59
2023-01-02T08:08:39.142Z,101567.00
2023-01-02T08:11:27.907Z,101584.84
2023-01-02T08:14:21.590Z,101561.50
2023-01-02T08:17:13.571Z,101560.72
2023-01-02T08:20:07.168Z,101555.13
2023-01-02T08:22:56.792Z,101558.81
2023-01-02T08:25:44.529Z,101555.75
2023-01-02T08:28:36.330Z,101550.31
2023-01-02T08:31:27.029Z,101551.75
2023-01-02T08:34:15.454Z,101549.13
2023-01-02T08:37:09.167Z,101563.28
2023-01-02T08:39:59.795Z,101553.69
2023-01-02T08:42:47.429Z,101535.91
2023-01-02T08:45:35.628Z,101564.84
2023-01-02T08:48:23.348Z,101558.59
2023-01-02T08:51:11.925Z,101548.03
2023-01-02T08:53:59.638Z,101539.72
2023-01-02T08:56:48.803Z,101541.31
2023-01-02T09:00:08.810Z,101540.31
2023-01-02T09:02:57.289Z,101535.41
2023-01-02T09:05:45.079Z,101523.47
2023-01-02T09:08:32.757Z,101533.53
2023-01-02T09:11:23.861Z,101530.09
2023-01-02T09:14:40.296Z,101521.16
2023-01-02T09:17:44.943Z,101503.53
2023-01-02T09:20:32.630Z,101517.16
2023-01-02T09:24:53.721Z,101512.16
2023-01-02T09:27:43.663Z,101510.19
2023-01-02T09:30:32.833Z,101491.50
2023-01-02T09:33:20.632Z,101505.25
2023-01-02T09:36:12.079Z,101491.25
2023-01-02T09:39:01.570Z,101497.53
2023-01-02T09:41:56.061Z,101491.97
2023-01-02T09:44:52.530Z,101483.06
2023-01-02T09:47:42.178Z,101483.56
2023-01-02T09:50:33.431Z,101484.88
2023-01-02T09:53:21.061Z,101478.66
2023-01-02T09:56:21.018Z,101474.97
2023-01-02T09:59:32.057Z,101475.22
2023-01-02T10:02:31.826Z,101480.06
2023-01-02T10:05:35.456Z,101468.25
2023-01-02T10:08:44.316Z,101470.56
2023-01-02T10:11:43.749Z,101451.84
2023-01-02T10:15:12.366Z,101447.66
2023-01-02T10:18:10.125Z,101439.19
2023-01-02T10:21:05.807Z,101441.50
2023-01-02T10:24:28.515Z,101441.88
2023-01-02T10:27:21.607Z,101413.00
2023-01-02T10:30:22.975Z,101430.25
2023-01-02T10:33:28.474Z,101419.63
2023-01-02T10:36:27.440Z,101420.13
2023-01-02T10:39:19.093Z,101422.72
2023-01-02T10:42:07.106Z,101391.41
2023-01-02T10:44:57.394Z,101397.75
2023-01-02T10:47:52.081Z,101377.38
2023-01-02T10:50:48.820Z,101408.25
2023-01-02T10:53:37.686Z,101393.72
2023-01-02T10:56:37.271Z,101361.03
2023-01-02T10:59:30.075Z,101383.56
2023-01-02T11:02:37.711Z,101378.25
2023-01-02T11:05:31.789Z,101388.84
2023-01-02T11:08:24.513Z,101385.13
2023-01-02T11:11:20.679Z,101351.69
2023-01-02T11:14:11.225Z,101369.91
2023-01-02T11:17:10.633Z,101363.03
2023-01-02T11:20:00.634Z,101368.31
2023-01-02T11:22:48.535Z,101369.34
2023-01-02T11:25:47.850Z,101341.25
2023-01-02T11:28:39.233Z,101360.53
2023-01-02T11:31:27.297Z,101341.03
2023-01-02T11:34:34.596Z,101337.72
2023-01-02T11:37:22.295Z,101338.22
2023-01-02T11:40:27.246Z,101323.31
2023-01-02T11:43:33.668Z,101326.63
2023-01-02T11:46:31.551Z,101327.25
2023-01-02T11:49:29.880Z,101293.75
2023-01-02T11:52:21.593Z,101329.47
2023-01-02T11:55:33.139Z,101316.72
2023-01-02T11:58:51.619Z,101322.53
2023-01-02T12:01:55.992Z,101311.34
2023-01-02T12:04:43.758Z,101306.03
2023-01-02T12:07:45.621Z,101312.41
2023-01-02T12:10:47.703Z,101300.06
2023-01-02T12:14:00.657Z,101294.72
2023-01-02T12:16:48.221Z,101297.25
2023-01-02T12:20:15.114Z,101296.50
2023-01-02T12:23:40.720Z,101289.63
2023-01-02T12:26:57.444Z,101284.41
2023-01-02T12:29:53.119Z,101287.34
2023-01-02T12:33:08.356Z,101251.19
2023-01-02T12:36:08.116Z,101278.78
2023-01-02T12:39:05.749Z,101277.13
2023-01-02T12:42:02.397Z,101264.63
2023-01-02T12:44:58.854Z,101272.13
2023-01-02T12:48:01.583Z,101263.91
2023-01-02T12:50:56.410Z,101274.31
2023-01-02T12:53:47.391Z,101272.63
2023-01-02T12:57:25.367Z,101274.78
2023-01-02T13:00:24.759Z,101271.56
2023-01-02T13:03:51.194Z,101260.34
2023-01-02T13:07:08.564Z,101271.84
2023-01-02T13:09:58.971Z,101271.97
2023-01-02T13:12:47.726Z,101273.69
2023-01-02T13:15:37.737Z,101270.13
2023-01-02T13:19:00.231Z,101251.09
2023-01-02T13:22:39.391Z,101267.97
2023-01-02T13:25:31.136Z,101266.63
2023-01-02T13:28:20.066Z,101261.66
2023-01-02T13:31:44.642Z,101238.78
2023-01-02T13:34:30.644Z,101262.06
2023-01-02T13:37:25.248Z,101260.00
2023-01-02T13:40:25.640Z,101248.13
2023-01-02T13:43:25.820Z,101251.91
2023-01-02T13:46:53.381Z,101265.81
2023-01-02T13:49:28.963Z,101255.47
2023-01-02T13:52:24.189Z,101241.00
2023-01-02T13:55:28.742Z,101267.47
2023-01-02T13:58:19.675Z,101222.59
2023-01-02T14:01:23.080Z,101266.50
2023-01-02T14:04:13.604Z,101264.00
2023-01-02T14:07:29.802Z,101256.16
2023-01-02T14:10:27.360Z,101262.06
2023-01-02T14:13:23.415Z,101256.88
2023-01-02T14:16:12.084Z,101246.91
2023-01-02T14:19:13.609Z,101225.44
2023-01-02T14:22:13.289Z,101225.06
2023-01-02T14:25:06.146Z,101237.19
2023-01-02T14:28:04.931Z,101245.94
2023-01-02T14:30:56.874Z,101246.94
2023-01-02T14:33:52.471Z,101249.03
2023-01-02T14:36:48.741Z,101247.22
2023-01-02T14:39:37.160Z,101248.31
2023-01-02T14:42:52.357Z,101242.44
2023-01-02T14:46:00.652Z,101220.16
2023-01-02T14:49:25.031Z,101250.53
2023-01-02T14:52:28.276Z,101253.00
2023-01-02T14:55:27.584Z,101249.38
2023-01-02T14:58:39.371Z,101250.25
2023-01-02T15:01:43.352Z,101243.28
2023-01-02T15:04:40.386Z,101262.94
2023-01-02T15:07:35.495Z,101169.53
2023-01-02T15:10:24.242Z,101235.44
2023-01-02T15:13:12.112Z,101248.59
2023-01-02T15:16:09.436Z,101251.03
2023-01-02T15:19:09.518Z,101253.16
2023-01-02T15:22:12.800Z,101224.53
2023-01-02T15:25:01.087Z,101237.53
2023-01-02T15:27:54.215Z,101259.09
2023-01-02T15:30:42.932Z,101268.63
2023-01-02T15:33:33.503Z,101242.28
2023-01-02T15:36:38.909Z,101237.38
2023-01-02T15:39:35.784Z,101242.38
2023-01-02T15:42:45.443Z,101269.13
2023-01-02T15:46:00.374Z,101264.66
2023-01-02T15:48:50.537Z,101277.06
2023-01-02T15:51:41.888Z,101265.06
2023-01-02T15:54:58.015Z,101183.31
2023-01-02T15:57:51.877Z,101257.38
2023-01-02T16:00:42.508Z,101256.03
2023-01-02T16:04:01.794Z,101281.63
2023-01-02T16:07:53.219Z,101282.22
2023-01-02T16:11:21.005Z,101290.41
2023-01-02T16:14:22.447Z,101242.03
2023-01-02T16:17:32.804Z,101289.47
2023-01-02T16:20:22.229Z,101272.94
2023-01-02T16:23:20.916Z,101283.03
2023-01-02T16:26:14.551Z,101229.78
2023-01-02T16:29:02.455Z,101295.09
2023-01-02T16:32:02.766Z,101262.44
2023-01-02T16:35:24.182Z,101267.03
2023-01-02T16:38:28.163Z,101297.06
2023-01-02T16:41:45.020Z,101307.81
2023-01-02T16:44:35.803Z,101298.50
2023-01-02T16:47:37.953Z,101302.53
2023-01-02T16:50:28.528Z,101292.56
2023-01-02T16:53:36.664Z,101302.03
2023-01-02T16:56:24.424Z,101302.53
2023-01-02T16:59:12.216Z,101304.59
2023-01-02T17:02:00.075Z,101298.19
2023-01-02T17:04:50.277Z,101302.97
2023-01-02T17:07:41.031Z,101276.50
2023-01-02T17:10:29.522Z,101303.66
2023-01-02T17:13:23.372Z,101297.94
2023-01-02T17:16:14.824Z,101290.03
2023-01-02T17:19:02.479Z,101312.41
2023-01-02T17:21:50.991Z,101297.22
2023-01-02T17:24:38.917Z,101301.28
2023-01-02T17:27:26.690Z,101302.19
2023-01-02T17:30:15.777Z,101306.81
2023-01-02T17:33:04.449Z,101305.69
2023-01-02T17:35:54.768Z,101297.28
2023-01-02T17:38:42.529Z,101303.97
2023-01-02T17:41:30.330Z,101299.16
2023-01-02T17:44:21.025Z,101301.75
2023-01-02T17:47:56.939Z,101301.88
2023-01-02T17:50:22.128Z,101305.38
2023-01-02T17:53:09.787Z,101314.13
2023-01-02T17:56:21.657Z,101315.03
2023-01-02T17:59:07.146Z,101315.03
2023-01-02T18:01:54.872Z,101308.50
2023-01-02T18:04:48.220Z,101316.50
2023-01-02T18:07:40.328Z,101317.31
2023-01-02T18:10:33.112Z,101321.72
2023-01-02T18:13:23.889Z,101325.81
2023-01-02T18:16:21.441Z,101318.44
2023-01-02T18:19:21.912Z,101241.63
2023-01-02T18:22:24.635Z,101327.00
2023-01-02T18:25:20.126Z,101317.06
2023-01-02T18:28:26.852Z,101322.63
2023-01-02T18:31:17.668Z,101333.78
2023-01-02T18:34:46.992Z,101323.38
2023-01-02T18:37:33.246Z,101320.72
2023-01-02T18:40:27.919Z,101313.13
2023-01-02T18:43:35.996Z,101316.22
2023-01-02T18:47:04.379Z,101305.03
2023-01-02T18:49:45.663Z,101310.72
2023-01-02T18:52:33.993Z,101316.22
2023-01-02T18:55:28.034Z,101320.88
2023-01-02T18:58:41.225Z,101319.81
2023-01-02T19:01:36.140Z,101307.63
2023-01-02T19:04:30.855Z,101321.19
2023-01-02T19:07:30.134Z,101313.38
2023-01-02T19:10:39.215Z,101323.22
2023-01-02T19:13:34.333Z,101318.34
2023-01-02T19:16:22.157Z,101278.78
2023-01-02T19:19:18.083Z,101315.78
2023-01-02T19:22:13.685Z,101298.31
2023-01-02T19:25:09.080Z,101282.06
2023-01-02T19:27:58.651Z,101300.59
2023-01-02T19:30:50.010Z,101305.44
2023-01-02T19:33:41.672Z,101294.50
2023-01-02T19:36:43.081Z,101296.13
2023-01-02T19:39:38.695Z,101277.22
2023-01-02T19:42:32.103Z,101294.31
2023-01-02T19:45:22.502Z,101305.16
2023-01-02T19:48:14.901Z,101278.91
2023-01-02T19:51:05.630Z,101301.84
2023-01-02T19:53:56.338Z,101299.50
2023-01-02T19:56:46.417Z,101297.59
2023-01-02T19:59:40.039Z,101302.34
2023-01-02T20:02:34.076Z,101283.91
2023-01-02T20:05:23.111Z,101289.66
2023-01-02T20:08:11.344Z,101281.50
2023-01-02T20:11:01.488Z,101271.75
2023-01-02T20:13:50.038Z,101295.44
2023-01-02T20:16:37.843Z,101305.06
2023-01-02T20:19:26.093Z,101290.34
2023-01-02T20:22:13.759Z,101304.09
2023-01-02T20:25:02.557Z,101305.50
2023-01-02T20:27:51.755Z,101309.09
2023-01-02T20:30:42.168Z,101284.38
2023-01-02T20:33:30.719Z,101299.59
2023-01-02T20:36:18.721Z,101296.09
2023-01-02T20:39:07.033Z,101308.91
2023-01-02T20:41:54.728Z,101278.38
2023-01-02T20:44:42.794Z,101304.31
2023-01-02T20:47:30.521Z,101303.53
2023-01-02T20:50:18.374Z,101251.22
2023-01-02T20:53:07.208Z,101301.28
2023-01-02T20:55:55.038Z,101294.25
2023-01-02T20:58:42.755Z,101304.91
2023-01-02T21:01:33.200Z,101296.97
2023-01-02T21:04:25.646Z,101294.31
2023-01-02T21:07:17.929Z,101282.88
2023-01-02T21:10:06.089Z,101292.16
2023-01-02T21:13:09.848Z,101280.72
2023-01-02T21:15:58.984Z,101290.53
2023-01-02T21:18:46.840Z,101285.88
2023-01-02T21:21:34.451Z,101263.28
2023-01-02T21:24:22.081Z,101287.28
2023-01-02T21:27:13.623Z,101272.28
2023-01-02T21:30:01.338Z,101251.06
2023-01-02T21:32:49.041Z,101274.50
2023-01-02T21:35:37.732Z,101282.16
2023-01-02T21:38:26.926Z,101269.84
2023-01-02T21:41:33.101Z,101279.72
2023-01-02T21:44:20.910Z,101274.25
2023-01-02T21:47:08.671Z,101275.91
2023-01-02T21:49:56.407Z,101272.09
2023-01-02T21:52:44.376Z,101269.41
2023-01-02T21:55:32.191Z,101273.78
2023-01-02T21:58:21.008Z,101267.44
2023-01-02T22:01:08.737Z,101235.91
2023-01-02T22:03:57.583Z,101253.03
2023-01-02T22:07:29.621Z,101251.94
2023-01-02T22:09:53.137Z,101222.00
2023-01-02T22:12:41.342Z,101243.50
2023-01-02T22:15:28.967Z,101243.25
2023-01-02T22:18:16.819Z,101245.69
2023-01-02T22:21:04.532Z,101248.38
2023-01-02T22:23:52.226Z,101214.94
2023-01-02T22:26:41.336Z,101239.72
2023-01-02T22:29:51.617Z,101238.91
2023-01-02T22:32:37.785Z,101240.56
2023-01-02T22:35:25.534Z,101245.75
2023-01-02T22:38:13.321Z,101243.56
2023-01-02T22:41:01.382Z,101226.44
2023-01-02T22:43:49.183Z,101239.78
2023-01-02T22:46:43.867Z,101236.25
2023-01-02T22:49:38.603Z,101202.19
2023-01-02T22:52:27.197Z,101207.88
2023-01-02T22:55:20.764Z,101188.28
2023-01-02T22:58:08.909Z,101192.13
2023-01-02T23:01:19.308Z,101223.97
2023-01-02T23:04:18.664Z,101205.19
2023-01-02T23:07:23.183Z,101212.53
2023-01-02T23:10:14.531Z,101221.81
2023-01-02T23:13:02.374Z,101222.63
2023-01-02T23:16:08.576Z,101211.47
2023-01-02T23:19:14.663Z,101169.25
2023-01-02T23:22:02.377Z,101204.41
2023-01-02T23:24:50.671Z,101199.75
2023-01-02T23:27:41.333Z,101218.00
2023-01-02T23:30:28.948Z,101211.72
2023-01-02T23:33:16.650Z,101182.88
2023-01-02T23:36:04.801Z,101187.81
2023-01-02T23:38:52.489Z,101210.13
2023-01-02T23:41:41.858Z,101199.50
2023-01-02T23:44:29.776Z,101216.94
2023-01-02T23:47:19.465Z,101205.22
2023-01-02T23:50:07.411Z,101150.78
2023-01-02T23:52:55.110Z,101190.50
2023-01-02T23:55:45.014Z,101193.50
2023-01-02T23:58:32.718Z,101220.47
